createdAt,value
2019-04-11T00:02:10.627Z,23.23
2019-04-11T00:04:40.147Z,22.73
2019-04-11T00:07:09.460Z,21.93
2019-04-11T00:09:38.819Z,22.67
2019-04-11T00:12:08.473Z,21.33
2019-04-11T00:14:38.048Z,22.37
2019-04-11T00:17:07.831Z,18.70
2019-04-11T00:19:37.726Z,17.37
2019-04-11T00:22:07.177Z,18.83
2019-04-11T00:24:36.797Z,22.53
2019-04-11T00:27:06.169Z,22.77
2019-04-11T00:29:36.493Z,21.53
2019-04-11T00:32:08.029Z,21.60
2019-04-11T00:34:37.372Z,19.10
2019-04-11T00:37:06.733Z,18.80
2019-04-11T00:39:35.894Z,20.43
2019-04-11T00:42:06.099Z,19.77
2019-04-11T00:44:35.770Z,19.67
2019-04-11T00:47:04.988Z,21.80
2019-04-11T00:49:34.653Z,21.80
2019-04-11T00:52:04.569Z,21.10
2019-04-11T00:54:35.178Z,22.17
2019-04-11T00:57:04.625Z,19.67
2019-04-11T00:59:34.182Z,18.73
2019-04-11T01:02:05.083Z,19.03
2019-04-11T01:04:34.959Z,22.33
2019-04-11T01:07:04.749Z,22.73
2019-04-11T01:09:34.733Z,22.40
2019-04-11T01:12:04.654Z,24.77
2019-04-11T01:14:35.954Z,22.50
2019-04-11T01:17:06.197Z,24.77
2019-04-11T01:19:35.820Z,24.37
2019-04-11T01:22:05.753Z,22.43
2019-04-11T01:24:35.597Z,23.53
2019-04-11T01:27:05.646Z,23.33
2019-04-11T01:29:35.662Z,21.33
2019-04-11T01:32:06.728Z,22.77
2019-04-11T01:34:37.006Z,20.67
2019-04-11T01:37:07.254Z,23.90
2019-04-11T01:39:50.187Z,21.40
2019-04-11T01:42:19.728Z,25.47
2019-04-11T01:44:49.325Z,24.10
2019-04-11T01:47:37.373Z,21.90
2019-04-11T01:50:08.746Z,24.57
2019-04-11T01:52:38.283Z,23.87
2019-04-11T01:55:08.244Z,26.33
2019-04-11T01:57:38.107Z,25.13
2019-04-11T02:00:09.739Z,25.30
2019-04-11T02:02:56.994Z,23.57
2019-04-11T02:05:29.262Z,26.33
2019-04-11T02:07:58.813Z,26.40
2019-04-11T02:10:28.717Z,26.10
2019-04-11T02:12:59.640Z,28.00
2019-04-11T02:15:30.366Z,26.47
2019-04-11T02:17:59.828Z,26.77
2019-04-11T02:20:29.199Z,27.13
2019-04-11T02:23:06.782Z,29.10
2019-04-11T02:25:38.723Z,29.00
2019-04-11T02:28:10.420Z,28.20
2019-04-11T02:30:44.153Z,29.73
2019-04-11T02:33:15.331Z,30.60
2019-04-11T02:35:46.330Z,29.80
2019-04-11T02:38:16.512Z,30.23
2019-04-11T02:40:47.455Z,30.37
2019-04-11T02:43:17.620Z,29.17
2019-04-11T02:46:00.156Z,29.67
2019-04-11T02:48:18.504Z,28.73
2019-04-11T02:50:50.173Z,30.73
2019-04-11T02:53:21.297Z,32.20
2019-04-11T02:55:52.187Z,32.60
2019-04-11T02:58:23.235Z,32.27
2019-04-11T03:00:55.940Z,31.00
2019-04-11T03:03:25.353Z,33.07
2019-04-11T03:05:55.464Z,32.50
2019-04-11T03:08:26.848Z,31.93
2019-04-11T03:10:57.559Z,31.77
2019-04-11T03:13:27.311Z,32.73
2019-04-11T03:16:12.839Z,34.33
2019-04-11T03:18:45.807Z,32.70
2019-04-11T03:21:04.590Z,32.17
2019-04-11T03:23:31.098Z,40.13
2019-04-11T03:26:00.749Z,34.30
2019-04-11T03:28:33.311Z,38.90
2019-04-11T03:31:37.310Z,43.77
2019-04-11T03:37:01.049Z,48.23
2019-04-11T03:38:57.042Z,40.90
2019-04-11T03:41:25.362Z,40.83
2019-04-11T03:43:51.115Z,44.43
2019-04-11T03:46:25.062Z,51.17
2019-04-11T03:48:53.004Z,47.50
2019-04-11T03:51:13.141Z,48.63
2019-04-11T03:53:43.195Z,44.67
2019-04-11T03:56:14.003Z,47.50
2019-04-11T03:58:43.990Z,43.40
2019-04-11T04:01:16.308Z,42.83
2019-04-11T04:03:46.706Z,40.97
2019-04-11T04:06:17.014Z,36.67
2019-04-11T04:08:48.280Z,39.33
2019-04-11T04:11:27.336Z,43.37
2019-04-11T04:13:59.416Z,42.63
2019-04-11T04:16:40.858Z,40.33
2019-04-11T04:19:15.726Z,47.90
2019-04-11T04:21:51.247Z,41.33
2019-04-11T04:24:36.711Z,38.20
2019-04-11T04:27:05.232Z,36.83
2019-04-11T04:29:37.741Z,37.17
2019-04-11T04:32:08.268Z,31.23
2019-04-11T04:34:40.174Z,36.83
2019-04-11T04:37:09.673Z,30.47
2019-04-11T04:39:39.994Z,32.67
2019-04-11T04:42:21.046Z,32.17
2019-04-11T04:44:42.880Z,37.30
2019-04-11T04:47:21.139Z,34.23
2019-04-11T04:49:43.684Z,36.43
2019-04-11T04:52:14.397Z,37.23
2019-04-11T04:54:44.476Z,34.00
2019-04-11T04:57:15.490Z,33.83
2019-04-11T04:59:44.985Z,30.97
2019-04-11T05:02:14.980Z,29.97
2019-04-11T05:04:45.858Z,32.77
2019-04-11T05:07:15.323Z,34.00
2019-04-11T05:09:45.852Z,35.77
2019-04-11T05:12:16.297Z,37.20
2019-04-11T05:14:45.686Z,37.20
2019-04-11T05:17:14.961Z,36.27
2019-04-11T05:19:44.584Z,36.53
2019-04-11T05:22:14.681Z,34.73
2019-04-11T05:24:44.032Z,33.50
2019-04-11T05:27:13.178Z,34.67
2019-04-11T05:29:42.242Z,33.00
2019-04-11T05:32:11.484Z,31.33
2019-04-11T05:34:41.437Z,31.17
2019-04-11T05:37:11.077Z,33.13
2019-04-11T05:39:41.294Z,33.93
2019-04-11T05:42:15.888Z,32.70
2019-04-11T05:44:43.186Z,31.33
2019-04-11T05:47:18.161Z,32.23
2019-04-11T05:49:51.315Z,32.23
2019-04-11T05:52:23.986Z,29.63
2019-04-11T05:54:54.964Z,31.80
2019-04-11T05:57:32.322Z,33.43
2019-04-11T05:59:56.575Z,32.27
2019-04-11T06:02:29.046Z,32.93
2019-04-11T06:05:06.852Z,32.37
2019-04-11T06:07:42.153Z,31.23
2019-04-11T06:10:12.849Z,32.60
2019-04-11T06:12:59.549Z,33.80
2019-04-11T06:15:31.278Z,30.30
2019-04-11T06:18:02.776Z,34.83
2019-04-11T06:20:39.720Z,32.13
2019-04-11T06:23:10.767Z,32.20
2019-04-11T06:25:49.130Z,32.57
2019-04-11T06:28:27.211Z,33.23
2019-04-11T06:31:01.321Z,33.60
2019-04-11T06:33:32.443Z,33.07
2019-04-11T06:36:21.459Z,33.27
2019-04-11T06:38:58.760Z,33.30
2019-04-11T06:41:30.597Z,34.57
2019-04-11T06:44:16.503Z,36.17
2019-04-11T06:46:56.203Z,34.10
2019-04-11T06:49:38.405Z,33.63
2019-04-11T06:52:10.614Z,32.40
2019-04-11T06:54:47.549Z,32.13
2019-04-11T06:57:18.777Z,28.00
2019-04-11T06:59:52.484Z,29.33
2019-04-11T07:02:24.636Z,27.97
2019-04-11T07:05:04.651Z,29.20
2019-04-11T07:07:35.674Z,27.33
2019-04-11T07:10:07.176Z,25.93
2019-04-11T07:12:55.531Z,25.90
2019-04-11T07:15:27.243Z,23.90
2019-04-11T07:18:14.350Z,25.20
2019-04-11T07:20:45.797Z,26.23
2019-04-11T07:23:33.207Z,23.33
2019-04-11T07:26:18.802Z,23.97
2019-04-11T07:28:50.254Z,24.50
2019-04-11T07:31:21.762Z,23.90
2019-04-11T07:34:08.914Z,22.97
2019-04-11T07:36:46.251Z,24.23
2019-04-11T07:39:17.251Z,22.37
2019-04-11T07:41:48.032Z,26.10
2019-04-11T07:44:27.408Z,23.03
2019-04-11T07:47:19.227Z,26.17
2019-04-11T07:49:51.128Z,26.33
2019-04-11T07:52:21.711Z,26.10
2019-04-11T07:54:51.435Z,28.50
2019-04-11T07:57:26.310Z,26.00
2019-04-11T08:00:00.232Z,26.40
2019-04-11T08:02:47.789Z,26.00
2019-04-11T08:05:36.907Z,26.30
2019-04-11T08:08:24.065Z,25.43
2019-04-11T08:11:11.539Z,27.67
2019-04-11T08:13:42.963Z,26.67
2019-04-11T08:16:22.885Z,29.63
2019-04-11T08:19:13.101Z,28.73
2019-04-11T08:21:56.749Z,28.73
2019-04-11T08:24:29.661Z,29.80
2019-04-11T08:27:17.638Z,30.30
2019-04-11T08:29:50.074Z,29.80
2019-04-11T08:32:27.431Z,31.87
2019-04-11T08:35:17.642Z,32.13
2019-04-11T08:38:04.887Z,31.97
2019-04-11T08:40:35.829Z,36.50
2019-04-11T08:43:24.656Z,36.00
2019-04-11T08:45:56.245Z,37.27
2019-04-11T08:48:26.677Z,35.37
2019-04-11T08:51:00.939Z,40.30
2019-04-11T08:53:35.080Z,37.13
2019-04-11T08:56:05.552Z,39.43
2019-04-11T08:58:55.128Z,39.43
2019-04-11T09:01:25.121Z,36.77
2019-04-11T09:04:13.710Z,37.13
2019-04-11T09:06:43.097Z,40.10
2019-04-11T09:09:31.401Z,40.07
2019-04-11T09:12:02.606Z,37.57
2019-04-11T09:14:40.051Z,37.53
2019-04-11T09:17:12.226Z,37.97
2019-04-11T09:19:47.239Z,38.50
2019-04-11T09:22:18.257Z,37.30
2019-04-11T09:25:05.364Z,38.90
2019-04-11T09:27:46.696Z,39.00
2019-04-11T09:30:33.696Z,35.90
2019-04-11T09:33:20.915Z,38.47
2019-04-11T09:35:51.771Z,33.97
2019-04-11T09:38:22.491Z,35.83
2019-04-11T09:41:09.301Z,33.17
2019-04-11T09:43:40.249Z,30.60
2019-04-11T09:46:14.471Z,28.27
2019-04-11T09:48:46.341Z,26.23
2019-04-11T09:51:32.148Z,25.17
2019-04-11T09:54:03.596Z,26.63
2019-04-11T09:56:40.334Z,22.90
2019-04-11T09:59:14.380Z,25.17
2019-04-11T10:02:03.126Z,24.30
2019-04-11T10:04:34.046Z,21.77
2019-04-11T10:07:17.554Z,17.80
2019-04-11T10:09:48.850Z,17.03
2019-04-11T10:12:28.357Z,18.97
2019-04-11T10:14:57.821Z,20.80
2019-04-11T10:17:31.797Z,21.40
2019-04-11T10:20:02.898Z,21.47
2019-04-11T10:22:36.619Z,19.60
2019-04-11T10:25:09.135Z,19.90
2019-04-11T10:27:57.243Z,19.30
2019-04-11T10:30:34.063Z,16.97
2019-04-11T10:33:10.839Z,18.07
2019-04-11T10:35:58.928Z,18.47
2019-04-11T10:38:28.738Z,17.67
2019-04-11T10:41:00.891Z,16.43
2019-04-11T10:43:32.136Z,16.53
2019-04-11T10:46:03.007Z,14.93
2019-04-11T10:48:39.476Z,14.60
2019-04-11T10:51:12.963Z,13.20
2019-04-11T10:53:43.772Z,14.47
2019-04-11T10:56:18.138Z,12.70
2019-04-11T10:58:49.155Z,12.50
2019-04-11T11:01:26.714Z,11.27
2019-04-11T11:03:57.537Z,10.17
2019-04-11T11:06:34.268Z,9.80
2019-04-11T11:09:17.884Z,10.53
2019-04-11T11:11:54.830Z,10.60
2019-04-11T11:14:42.861Z,10.73
2019-04-11T11:17:48.227Z,10.90
2019-04-11T11:20:33.632Z,10.43
2019-04-11T11:22:58.398Z,10.53
2019-04-11T11:25:37.894Z,10.43
2019-04-11T11:28:07.475Z,11.07
2019-04-11T11:30:39.925Z,13.43
2019-04-11T11:33:11.026Z,14.30
2019-04-11T11:35:45.741Z,14.73
2019-04-11T11:38:19.951Z,14.97
2019-04-11T11:41:00.463Z,16.50
2019-04-11T11:43:32.992Z,15.80
2019-04-11T11:46:25.515Z,19.00
2019-04-11T11:48:54.266Z,17.20
2019-04-11T11:51:37.588Z,18.07
2019-04-11T11:54:11.578Z,18.80
2019-04-11T11:56:42.845Z,17.03
2019-04-11T11:59:25.633Z,17.40
2019-04-11T12:01:56.468Z,15.93
2019-04-11T12:04:35.920Z,16.37
2019-04-11T12:07:12.650Z,16.60
2019-04-11T12:09:53.025Z,15.87
2019-04-11T12:12:27.411Z,14.47
2019-04-11T12:15:17.702Z,15.33
2019-04-11T12:17:59.648Z,16.93
2019-04-11T12:20:34.687Z,17.20
2019-04-11T12:23:06.657Z,16.57
2019-04-11T12:25:38.912Z,16.27
2019-04-11T12:28:14.636Z,16.37
2019-04-11T12:30:42.466Z,16.43
2019-04-11T12:33:25.710Z,16.37
2019-04-11T12:35:58.925Z,16.13
2019-04-11T12:38:29.120Z,14.70
2019-04-11T12:41:08.864Z,14.57
2019-04-11T12:43:42.282Z,13.87
2019-04-11T12:46:30.080Z,13.37
2019-04-11T12:49:01.134Z,13.07
2019-04-11T12:51:37.687Z,12.43
2019-04-11T12:54:07.397Z,13.03
2019-04-11T12:56:50.229Z,12.53
2019-04-11T12:59:19.620Z,16.03
2019-04-11T13:01:50.490Z,17.43
2019-04-11T13:04:21.411Z,13.40
2019-04-11T13:06:58.117Z,12.60
2019-04-11T13:09:46.859Z,13.40
2019-04-11T13:12:23.846Z,12.43
2019-04-11T13:15:06.772Z,11.60
2019-04-11T13:17:37.564Z,12.47
2019-04-11T13:20:09.383Z,11.83
2019-04-11T13:22:39.850Z,13.73
2019-04-11T13:25:27.093Z,13.90
2019-04-11T13:27:57.982Z,14.47
2019-04-11T13:30:44.985Z,14.87
2019-04-11T13:33:15.994Z,14.63
2019-04-11T13:36:04.641Z,14.87
2019-04-11T13:38:36.076Z,16.10
2019-04-11T13:41:23.160Z,16.67
2019-04-11T13:43:54.028Z,18.37
2019-04-11T13:46:37.087Z,18.60
2019-04-11T13:49:19.770Z,17.63
2019-04-11T13:52:05.727Z,16.57
2019-04-11T13:54:42.420Z,16.10
2019-04-11T13:57:28.268Z,17.13
2019-04-11T14:00:15.417Z,18.50
2019-04-11T14:02:51.227Z,18.87
2019-04-11T14:05:18.837Z,17.83
2019-04-11T14:07:49.265Z,19.70
2019-04-11T14:10:19.496Z,18.80
2019-04-11T14:12:48.726Z,19.90
2019-04-11T14:15:30.281Z,19.57
2019-04-11T14:18:06.983Z,19.90
2019-04-11T14:20:41.747Z,19.80
2019-04-11T14:23:23.446Z,20.00
2019-04-11T14:26:00.620Z,20.57
2019-04-11T14:28:40.280Z,22.07
2019-04-11T14:31:14.366Z,22.10
2019-04-11T14:33:45.256Z,21.10
2019-04-11T14:36:33.840Z,21.93
2019-04-11T14:39:04.650Z,21.77
2019-04-11T14:41:43.624Z,21.73
2019-04-11T14:44:15.794Z,22.53
2019-04-11T14:46:55.609Z,21.33
2019-04-11T14:49:27.059Z,21.43
2019-04-11T14:52:09.145Z,20.90
2019-04-11T14:54:42.671Z,21.93
2019-04-11T14:57:22.752Z,22.03
2019-04-11T14:59:54.145Z,25.57
2019-04-11T15:02:28.166Z,24.30
2019-04-11T15:05:15.423Z,26.20
2019-04-11T15:07:46.075Z,24.40
2019-04-11T15:10:32.342Z,24.70
2019-04-11T15:13:01.650Z,26.33
2019-04-11T15:15:38.323Z,26.60
2019-04-11T15:18:07.536Z,27.23
2019-04-11T15:20:54.196Z,27.77
2019-04-11T15:23:19.655Z,28.60
2019-04-11T15:26:08.189Z,25.03
2019-04-11T15:28:39.336Z,27.17
2019-04-11T15:31:19.521Z,24.00
2019-04-11T15:33:53.352Z,25.07
2019-04-11T15:36:27.706Z,25.73
2019-04-11T15:39:05.937Z,25.77
2019-04-11T15:41:35.401Z,28.00
2019-04-11T15:44:18.651Z,28.47
2019-04-11T15:46:48.516Z,32.43
2019-04-11T15:49:35.760Z,28.50
2019-04-11T15:52:07.893Z,32.33
2019-04-11T15:54:50.728Z,41.33
2019-04-11T15:57:26.824Z,53.83
2019-04-11T15:59:57.213Z,52.27
2019-04-11T16:02:44.074Z,46.67
2019-04-11T16:05:32.190Z,48.40
2019-04-11T16:08:21.330Z,46.13
2019-04-11T16:10:52.223Z,52.53
2019-04-11T16:13:31.978Z,48.47
2019-04-11T16:16:07.045Z,50.13
2019-04-11T16:18:41.115Z,49.23
2019-04-11T16:21:18.617Z,64.60
2019-04-11T16:23:59.290Z,49.20
2019-04-11T16:26:35.725Z,53.77
2019-04-11T16:29:12.171Z,51.73
2019-04-11T16:31:42.117Z,51.07
2019-04-11T16:34:15.848Z,54.57
2019-04-11T16:36:45.458Z,52.43
2019-04-11T16:39:33.086Z,57.20
2019-04-11T16:42:06.719Z,56.87
2019-04-11T16:44:56.047Z,60.57
2019-04-11T16:47:26.819Z,59.70
2019-04-11T16:49:57.131Z,61.93
2019-04-11T16:52:26.864Z,70.27
2019-04-11T16:54:56.114Z,67.70
2019-04-11T16:57:25.261Z,60.13
2019-04-11T16:59:54.533Z,55.00
2019-04-11T17:02:24.247Z,62.43
2019-04-11T17:04:55.938Z,54.57
2019-04-11T17:07:32.289Z,61.63
2019-04-11T17:10:02.778Z,57.17
2019-04-11T17:12:31.912Z,57.47
2019-04-11T17:15:01.792Z,60.03
2019-04-11T17:17:31.653Z,56.50
2019-04-11T17:20:01.081Z,61.30
2019-04-11T17:22:30.309Z,63.23
2019-04-11T17:24:59.677Z,57.93
2019-04-11T17:27:28.963Z,81.70
2019-04-11T17:29:58.216Z,64.40
2019-04-11T17:32:27.437Z,58.43
2019-04-11T17:34:56.657Z,59.63
2019-04-11T17:37:25.943Z,52.83
2019-04-11T17:39:55.150Z,57.63
2019-04-11T17:42:24.409Z,59.37
2019-04-11T17:44:53.661Z,53.03
2019-04-11T17:47:26.780Z,51.93
2019-04-11T17:49:53.769Z,55.67
2019-04-11T17:52:23.024Z,53.27
2019-04-11T17:54:54.292Z,54.73
2019-04-11T17:57:26.634Z,57.53
2019-04-11T17:59:54.076Z,50.63
2019-04-11T18:02:23.219Z,60.53
2019-04-11T18:04:52.403Z,73.37
2019-04-11T18:07:21.715Z,72.83
2019-04-11T18:09:51.016Z,65.57
2019-04-11T18:12:20.236Z,64.63
2019-04-11T18:14:49.630Z,63.10
2019-04-11T18:17:19.087Z,59.50
2019-04-11T18:19:48.301Z,55.87
2019-04-11T18:22:17.647Z,57.37
2019-04-11T18:24:49.887Z,57.90
2019-04-11T18:27:21.737Z,55.73
2019-04-11T18:29:52.650Z,63.00
2019-04-11T18:32:20.298Z,60.70
2019-04-11T18:34:50.982Z,56.53
2019-04-11T18:37:20.238Z,64.47
2019-04-11T18:39:49.719Z,66.47
2019-04-11T18:42:18.958Z,69.00
2019-04-11T18:44:48.234Z,65.67
2019-04-11T18:47:17.537Z,62.30
2019-04-11T18:49:47.177Z,62.63
2019-04-11T18:52:19.886Z,58.30
2019-04-11T18:54:47.681Z,55.57
2019-04-11T18:57:16.832Z,53.57
2019-04-11T18:59:46.069Z,53.63
2019-04-11T19:02:15.271Z,49.93
2019-04-11T19:04:44.474Z,45.77
2019-04-11T19:07:14.155Z,25.77
2019-04-11T19:09:43.866Z,45.43
2019-04-11T19:12:15.874Z,43.57
2019-04-11T19:14:46.099Z,43.40
2019-04-11T19:17:16.374Z,42.87
2019-04-11T19:19:48.611Z,42.53
2019-04-11T19:22:19.490Z,52.23
2019-04-11T19:24:47.719Z,53.60
2019-04-11T19:27:20.290Z,53.50
2019-04-11T19:29:50.357Z,50.70
2019-04-11T19:32:19.758Z,53.83
2019-04-11T19:34:49.287Z,145.80
2019-04-11T19:37:18.638Z,106.53
2019-04-11T19:39:47.986Z,67.33
2019-04-11T19:42:19.673Z,59.50
2019-04-11T19:44:49.699Z,53.63
2019-04-11T19:47:22.295Z,52.47
2019-04-11T19:49:51.659Z,62.93
2019-04-11T19:52:21.146Z,55.03
2019-04-11T19:54:50.301Z,53.93
2019-04-11T19:57:19.951Z,53.97
2019-04-11T19:59:49.257Z,53.80
2019-04-11T20:02:18.397Z,57.77
2019-04-11T20:04:47.847Z,56.97
2019-04-11T20:07:17.256Z,188.00
2019-04-11T20:09:46.498Z,157.13
2019-04-11T20:12:15.792Z,106.60
2019-04-11T20:14:45.149Z,76.23
2019-04-11T20:17:14.463Z,60.60
2019-04-11T20:19:43.713Z,53.87
2019-04-11T20:22:12.967Z,45.00
2019-04-11T20:24:45.975Z,55.57
2019-04-11T20:27:13.115Z,51.63
2019-04-11T20:29:42.404Z,52.63
2019-04-11T20:32:11.568Z,51.50
2019-04-11T20:34:40.794Z,44.70
2019-04-11T20:37:12.999Z,43.97
2019-04-11T20:39:46.394Z,52.73
2019-04-11T20:42:13.790Z,45.83
2019-04-11T20:44:44.270Z,45.00
2019-04-11T20:47:16.850Z,46.63
2019-04-11T20:49:47.553Z,38.10
2019-04-11T20:52:16.979Z,38.77
2019-04-11T20:54:47.423Z,36.03
2019-04-11T20:57:25.669Z,40.90
2019-04-11T20:59:49.041Z,43.37
2019-04-11T21:02:19.831Z,39.47
2019-04-11T21:04:50.729Z,40.70
2019-04-11T21:07:23.502Z,40.10
2019-04-11T21:09:52.790Z,47.60
2019-04-11T21:12:23.696Z,50.73
2019-04-11T21:14:54.545Z,43.70
2019-04-11T21:17:25.278Z,43.13
2019-04-11T21:19:54.631Z,39.77
2019-04-11T21:22:25.544Z,41.83
2019-04-11T21:24:59.468Z,49.73
2019-04-11T21:27:29.560Z,45.97
2019-04-11T21:30:00.047Z,51.03
2019-04-11T21:32:31.967Z,51.27
2019-04-11T21:35:02.332Z,50.13
2019-04-11T21:37:31.924Z,48.60
2019-04-11T21:40:01.162Z,51.73
2019-04-11T21:42:30.414Z,48.90
2019-04-11T21:44:59.926Z,47.30
2019-04-11T21:47:31.668Z,55.33
2019-04-11T21:50:00.813Z,54.13
2019-04-11T21:52:32.297Z,40.50
2019-04-11T21:55:01.745Z,44.60
2019-04-11T21:57:32.587Z,46.60
2019-04-11T22:00:03.296Z,43.90
2019-04-11T22:02:33.984Z,41.73
2019-04-11T22:05:04.858Z,40.00
2019-04-11T22:07:34.171Z,40.53
2019-04-11T22:10:06.988Z,42.50
2019-04-11T22:12:35.162Z,43.03
2019-04-11T22:15:06.140Z,43.83
2019-04-11T22:17:35.351Z,44.03
2019-04-11T22:20:06.369Z,37.43
2019-04-11T22:22:35.614Z,33.13
2019-04-11T22:25:06.702Z,31.97
2019-04-11T22:27:35.930Z,32.37
2019-04-11T22:30:07.849Z,30.93
2019-04-11T22:32:37.142Z,30.77
2019-04-11T22:35:06.847Z,31.50
2019-04-11T22:37:36.263Z,33.27
2019-04-11T22:40:07.438Z,30.20
2019-04-11T22:42:36.637Z,28.37
2019-04-11T22:45:08.497Z,27.30
2019-04-11T22:47:38.296Z,25.17
2019-04-11T22:50:10.060Z,24.53
2019-04-11T22:52:39.866Z,24.50
2019-04-11T22:55:11.306Z,22.73
2019-04-11T22:57:43.703Z,20.17
2019-04-11T23:00:15.137Z,20.37
2019-04-11T23:03:01.788Z,22.83
2019-04-11T23:05:31.026Z,23.60
2019-04-11T23:08:02.709Z,20.30
2019-04-11T23:10:31.067Z,21.80
2019-04-11T23:13:00.231Z,25.57
2019-04-11T23:15:29.427Z,22.77
2019-04-11T23:17:58.560Z,20.83
2019-04-11T23:20:27.741Z,19.23
2019-04-11T23:22:56.926Z,21.30
2019-04-11T23:25:26.050Z,18.97
2019-04-11T23:27:55.170Z,16.57
2019-04-11T23:30:24.367Z,17.37
2019-04-11T23:32:53.492Z,17.37
2019-04-11T23:35:22.746Z,18.70
2019-04-11T23:37:52.324Z,18.63
2019-04-11T23:40:22.027Z,16.90
2019-04-11T23:42:51.379Z,17.43
2019-04-11T23:45:24.583Z,19.07
2019-04-11T23:47:54.390Z,19.40
2019-04-11T23:50:25.216Z,20.40
2019-04-11T23:52:57.255Z,19.03
2019-04-11T23:55:29.950Z,18.97
2019-04-11T23:57:56.651Z,19.13
